CheckWX is a tool to help pilots better visualize weather data.  It is not intended as a substitute for an official pre-flight weather briefing.

17:56:43 UTC

KMWM METAR
Windom Municipal Airport
Windom, Minnesota, USA
Current

1 hour ago

KMWM 201655Z AUTO 21007KT 10SM CLR M14/M19 A3070 RMK AO2
Observed
Feb-20 @ 16:55 UTC
Wind
  • 210° at 7 KTS
Visibility
10 SM
Flight Rules
VFR
Cloud Levels
  • Clear skies
Temperature
-14°C / 7°F
Dewpoint
-19°C / -2°F
Humidity
66%
Altimeter
30.7" Hg
Pressure
1039.62 hPa
Previous

2 hours ago

KMWM 201555Z AUTO 22006KT 10SM CLR M18/M20 A3071 RMK AO2
Observed
Feb-20 @ 15:55 UTC
Wind
  • 220° at 6 KTS
Visibility
10 SM
Flight Rules
VFR
Cloud Levels
  • Clear skies
Temperature
-18°C / -0°F
Dewpoint
-20°C / -4°F
Humidity
84%
Altimeter
30.71" Hg
Pressure
1039.92 hPa
Previous

3 hours ago

KMWM 201455Z AUTO 22003KT 10SM CLR M21/M22 A3072 RMK AO2
Observed
Feb-20 @ 14:55 UTC
Wind
  • 220° at 3 KTS
Visibility
10 SM
Flight Rules
VFR
Cloud Levels
  • Clear skies
Temperature
-21°C / -6°F
Dewpoint
-22°C / -8°F
Humidity
92%
Altimeter
30.72" Hg
Pressure
1040.32 hPa